createdAt,value
2019-04-16T00:01:53.987Z,8.13
2019-04-16T00:04:38.203Z,7.53
2019-04-16T00:07:25.981Z,7.70
2019-04-16T00:10:15.203Z,7.87
2019-04-16T00:12:50.345Z,8.03
2019-04-16T00:15:20.905Z,7.50
2019-04-16T00:17:50.803Z,8.40
2019-04-16T00:20:20.732Z,7.07
2019-04-16T00:23:00.568Z,7.43
2019-04-16T00:25:31.827Z,7.10
2019-04-16T00:28:01.844Z,8.57
2019-04-16T00:30:35.490Z,8.43
2019-04-16T00:33:03.334Z,8.10
2019-04-16T00:35:33.176Z,8.00
2019-04-16T00:38:02.957Z,8.37
2019-04-16T00:40:32.734Z,8.03
2019-04-16T00:43:02.675Z,8.37
2019-04-16T00:45:32.885Z,7.60
2019-04-16T00:48:02.716Z,7.73
2019-04-16T00:50:32.648Z,7.83
2019-04-16T00:53:07.629Z,7.23
2019-04-16T00:55:34.415Z,7.07
2019-04-16T00:58:05.743Z,8.33
2019-04-16T01:00:35.767Z,8.13
2019-04-16T01:03:05.731Z,7.23
2019-04-16T01:05:35.862Z,8.50
2019-04-16T01:08:05.860Z,7.83
2019-04-16T01:10:35.635Z,8.10
2019-04-16T01:13:05.581Z,8.43
2019-04-16T01:15:35.684Z,7.43
2019-04-16T01:18:08.057Z,8.20
2019-04-16T01:20:37.246Z,8.17
2019-04-16T01:23:07.068Z,7.80
2019-04-16T01:25:36.932Z,8.50
2019-04-16T01:28:10.020Z,7.87
2019-04-16T01:31:08.086Z,8.90
2019-04-16T01:33:47.430Z,7.77
2019-04-16T01:36:29.671Z,8.63
2019-04-16T01:39:14.738Z,8.27
2019-04-16T01:41:34.727Z,8.13
2019-04-16T01:44:05.763Z,9.07
2019-04-16T01:46:35.768Z,7.80
2019-04-16T01:49:09.732Z,8.20
2019-04-16T01:51:37.819Z,8.20
2019-04-16T01:54:07.801Z,8.00
2019-04-16T01:56:37.661Z,7.97
2019-04-16T01:59:07.514Z,7.97
2019-04-16T02:01:37.406Z,8.00
2019-04-16T02:04:07.268Z,7.50
2019-04-16T02:06:37.207Z,8.60
2019-04-16T02:09:21.263Z,8.43
2019-04-16T02:11:41.413Z,8.20
2019-04-16T02:14:10.659Z,8.73
2019-04-16T02:16:40.567Z,7.97
2019-04-16T02:19:10.496Z,8.03
2019-04-16T02:21:41.457Z,8.83
2019-04-16T02:24:12.225Z,8.07
2019-04-16T02:26:42.047Z,8.30
2019-04-16T02:29:12.017Z,8.13
2019-04-16T02:31:41.935Z,9.27
2019-04-16T02:34:11.797Z,8.63
2019-04-16T02:36:41.710Z,8.30
2019-04-16T02:39:11.519Z,8.23
2019-04-16T02:41:41.730Z,8.07
2019-04-16T02:44:16.349Z,9.07
2019-04-16T02:46:43.240Z,8.73
2019-04-16T02:49:13.195Z,8.20
2019-04-16T02:51:49.136Z,8.60
2019-04-16T02:54:41.043Z,8.40
2019-04-16T02:57:29.886Z,7.77
2019-04-16T03:00:02.991Z,8.63
2019-04-16T03:02:48.602Z,9.47
2019-04-16T03:05:35.360Z,9.03
2019-04-16T03:08:05.973Z,7.73
2019-04-16T03:10:37.359Z,8.50
2019-04-16T03:13:07.293Z,9.50
2019-04-16T03:16:05.857Z,8.30
2019-04-16T03:18:48.374Z,8.57
2019-04-16T03:21:18.250Z,9.00
2019-04-16T03:23:48.805Z,8.63
2019-04-16T03:26:18.962Z,8.80
2019-04-16T03:28:48.829Z,8.60
2019-04-16T03:31:22.933Z,8.77
2019-04-16T03:33:51.179Z,9.07
2019-04-16T03:36:21.038Z,8.90
2019-04-16T03:38:50.994Z,8.63
2019-04-16T03:41:20.869Z,8.93
2019-04-16T03:43:50.813Z,8.70
2019-04-16T03:46:20.875Z,9.77
2019-04-16T03:48:52.668Z,8.83
2019-04-16T03:51:22.657Z,9.00
2019-04-16T03:53:52.603Z,9.20
2019-04-16T03:56:22.539Z,9.10
2019-04-16T03:58:52.462Z,8.07
2019-04-16T04:01:22.337Z,9.10
2019-04-16T04:03:54.443Z,8.23
2019-04-16T04:06:24.120Z,9.37
2019-04-16T04:08:53.969Z,8.63
2019-04-16T04:11:23.835Z,9.27
2019-04-16T04:13:53.694Z,10.17
2019-04-16T04:16:23.561Z,9.87
2019-04-16T04:18:53.420Z,9.93
2019-04-16T04:21:23.277Z,9.23
2019-04-16T04:23:53.125Z,8.60
2019-04-16T04:26:23.006Z,9.03
2019-04-16T04:28:52.806Z,8.80
2019-04-16T04:31:22.936Z,9.17
2019-04-16T04:33:52.805Z,9.10
2019-04-16T04:36:26.705Z,9.40
2019-04-16T04:38:54.449Z,10.33
2019-04-16T04:41:24.637Z,9.70
2019-04-16T04:43:54.965Z,10.30
2019-04-16T04:46:26.313Z,9.43
2019-04-16T04:49:00.017Z,10.03
2019-04-16T04:51:27.947Z,9.93
2019-04-16T04:53:58.093Z,9.57
2019-04-16T04:56:28.647Z,10.07
2019-04-16T04:58:59.007Z,9.03
2019-04-16T05:01:28.936Z,10.13
2019-04-16T05:04:23.987Z,12.87
2019-04-16T05:06:57.245Z,10.30
2019-04-16T05:09:29.380Z,9.60
2019-04-16T05:11:59.320Z,10.03
2019-04-16T05:14:29.106Z,10.77
2019-04-16T05:16:58.995Z,11.53
2019-04-16T05:19:29.778Z,11.13
2019-04-16T05:22:02.686Z,11.07
2019-04-16T05:24:33.558Z,11.00
2019-04-16T05:27:05.471Z,11.80
2019-04-16T05:29:35.301Z,11.37
2019-04-16T05:32:05.521Z,11.27
2019-04-16T05:34:37.408Z,11.03
2019-04-16T05:37:07.310Z,9.73
2019-04-16T05:39:37.248Z,11.33
2019-04-16T05:42:07.188Z,10.83
2019-04-16T05:44:37.349Z,11.53
2019-04-16T05:47:07.220Z,12.27
2019-04-16T05:49:37.171Z,11.60
2019-04-16T05:52:07.112Z,10.77
2019-04-16T05:54:55.047Z,10.47
2019-04-16T05:57:30.539Z,10.43
2019-04-16T06:00:03.339Z,9.93
2019-04-16T06:02:39.042Z,10.90
2019-04-16T06:05:09.373Z,10.23
2019-04-16T06:07:39.709Z,11.23
2019-04-16T06:10:10.289Z,9.67
2019-04-16T06:13:09.457Z,10.33
2019-04-16T06:15:50.260Z,10.17
2019-04-16T06:18:39.853Z,10.23
2019-04-16T06:21:31.691Z,10.90
2019-04-16T06:24:12.295Z,10.17
2019-04-16T06:26:55.207Z,9.97
2019-04-16T06:29:39.079Z,10.43
2019-04-16T06:32:17.346Z,10.13
2019-04-16T06:35:04.890Z,10.50
2019-04-16T06:38:00.298Z,10.10
2019-04-16T06:40:37.896Z,10.47
2019-04-16T06:43:25.248Z,9.77
2019-04-16T06:46:10.082Z,9.77
2019-04-16T06:48:54.160Z,9.57
2019-04-16T06:51:45.741Z,9.33
2019-04-16T06:54:34.609Z,9.97
2019-04-16T06:57:29.576Z,10.53
2019-04-16T07:00:13.726Z,10.57
2019-04-16T07:03:02.642Z,10.13
2019-04-16T07:05:48.192Z,10.83
2019-04-16T07:08:37.470Z,10.40
2019-04-16T07:11:01.767Z,9.20
2019-04-16T07:13:31.635Z,9.67
2019-04-16T07:16:01.788Z,10.00
2019-04-16T07:18:31.728Z,8.93
2019-04-16T07:21:02.720Z,9.67
2019-04-16T07:23:32.791Z,9.17
2019-04-16T07:26:03.721Z,8.87
2019-04-16T07:28:39.399Z,9.00
2019-04-16T07:31:31.815Z,10.17
2019-04-16T07:34:13.725Z,10.00
2019-04-16T07:37:11.550Z,9.50
2019-04-16T07:39:55.168Z,9.63
2019-04-16T07:42:51.184Z,10.30
2019-04-16T07:45:20.497Z,9.70
2019-04-16T07:48:06.239Z,11.03
2019-04-16T07:50:53.072Z,11.20
2019-04-16T07:53:47.464Z,10.50
2019-04-16T07:56:20.985Z,11.00
2019-04-16T07:58:51.029Z,9.83
2019-04-16T08:01:21.376Z,10.27
2019-04-16T08:03:51.594Z,9.20
2019-04-16T08:06:21.379Z,10.30
2019-04-16T08:08:53.991Z,9.57
2019-04-16T08:11:24.287Z,10.37
2019-04-16T08:13:54.521Z,10.53
2019-04-16T08:16:25.880Z,10.50
2019-04-16T08:18:55.781Z,10.33
2019-04-16T08:21:26.039Z,10.97
2019-04-16T08:24:01.542Z,11.77
2019-04-16T08:26:31.699Z,11.53
2019-04-16T08:29:01.637Z,11.47
2019-04-16T08:31:33.561Z,11.20
2019-04-16T08:34:03.671Z,11.27
2019-04-16T08:36:34.012Z,10.47
2019-04-16T08:39:07.601Z,10.73
2019-04-16T08:41:37.647Z,10.50
2019-04-16T08:44:10.088Z,11.33
2019-04-16T08:46:41.159Z,11.37
2019-04-16T08:49:14.793Z,10.27
2019-04-16T08:51:43.883Z,11.03
2019-04-16T08:54:17.963Z,12.00
2019-04-16T08:56:45.691Z,11.73
2019-04-16T08:59:15.937Z,10.87
2019-04-16T09:01:45.790Z,11.23
2019-04-16T09:04:16.198Z,10.23
2019-04-16T09:06:47.304Z,9.57
2019-04-16T09:09:37.166Z,10.43
2019-04-16T09:12:09.633Z,10.00
2019-04-16T09:14:46.070Z,10.17
2019-04-16T09:17:30.964Z,10.20
2019-04-16T09:20:18.737Z,10.27
2019-04-16T09:22:49.769Z,10.47
2019-04-16T09:25:38.208Z,10.57
2019-04-16T09:28:26.549Z,10.70
2019-04-16T09:31:22.151Z,10.63
2019-04-16T09:34:05.336Z,10.07
2019-04-16T09:36:56.317Z,10.30
2019-04-16T09:39:42.264Z,9.30
2019-04-16T09:42:12.192Z,9.70
2019-04-16T09:44:42.017Z,9.73
2019-04-16T09:47:13.608Z,9.33
2019-04-16T09:49:44.563Z,9.70
2019-04-16T09:52:14.414Z,9.83
2019-04-16T09:54:45.145Z,9.67
2019-04-16T09:57:16.280Z,8.93
2019-04-16T09:59:56.482Z,9.40
2019-04-16T10:02:29.394Z,10.00
2019-04-16T10:04:59.250Z,8.83
2019-04-16T10:07:29.291Z,9.50
2019-04-16T10:09:59.144Z,7.83
2019-04-16T10:12:29.077Z,8.90
2019-04-16T10:15:00.336Z,9.57
2019-04-16T10:17:30.306Z,9.47
2019-04-16T10:20:00.241Z,9.37
2019-04-16T10:22:30.145Z,8.73
2019-04-16T10:25:11.096Z,9.87
2019-04-16T10:27:43.312Z,9.53
2019-04-16T10:30:35.648Z,9.57
2019-04-16T10:33:05.649Z,9.63
2019-04-16T10:35:35.582Z,8.97
2019-04-16T10:38:19.511Z,9.33
2019-04-16T10:40:54.801Z,8.53
2019-04-16T10:43:44.990Z,8.93
2019-04-16T10:46:37.250Z,8.07
2019-04-16T10:49:26.082Z,8.53
2019-04-16T10:52:09.378Z,8.83
2019-04-16T10:54:43.701Z,8.07
2019-04-16T10:57:31.724Z,7.80
2019-04-16T11:00:19.701Z,8.97
2019-04-16T11:02:54.223Z,8.07
2019-04-16T11:05:32.431Z,8.83
2019-04-16T11:08:04.227Z,9.43
2019-04-16T11:10:34.760Z,8.40
2019-04-16T11:13:06.778Z,8.23
2019-04-16T11:15:37.578Z,8.20
2019-04-16T11:18:07.836Z,7.93
2019-04-16T11:20:38.024Z,8.10
2019-04-16T11:23:08.210Z,8.47
2019-04-16T11:25:38.554Z,8.33
2019-04-16T11:28:08.432Z,7.90
2019-04-16T11:30:41.132Z,7.83
2019-04-16T11:33:11.347Z,8.00
2019-04-16T11:35:41.419Z,8.80
2019-04-16T11:38:11.618Z,10.30
2019-04-16T11:40:41.828Z,11.00
2019-04-16T11:43:11.743Z,10.17
2019-04-16T11:45:41.693Z,10.13
2019-04-16T11:48:11.836Z,9.63
2019-04-16T11:50:41.754Z,10.30
2019-04-16T11:53:11.565Z,10.30
2019-04-16T11:55:41.566Z,10.37
2019-04-16T11:58:25.238Z,10.37
2019-04-16T12:01:00.284Z,11.50
2019-04-16T12:03:40.015Z,10.13
2019-04-16T12:06:31.634Z,12.00
2019-04-16T12:09:09.675Z,12.00
2019-04-16T12:11:44.691Z,11.10
2019-04-16T12:14:42.108Z,12.17
2019-04-16T12:17:15.229Z,11.83
2019-04-16T12:20:03.450Z,19.80
2019-04-16T12:22:44.177Z,14.20
2019-04-16T12:25:36.577Z,16.20
2019-04-16T12:28:26.850Z,14.60
2019-04-16T12:31:07.290Z,12.43
2019-04-16T12:33:54.182Z,13.67
2019-04-16T12:36:46.421Z,13.00
2019-04-16T12:39:31.931Z,13.50
2019-04-16T12:42:19.063Z,18.57
2019-04-16T12:44:55.130Z,13.30
2019-04-16T12:47:37.692Z,13.27
2019-04-16T12:50:17.880Z,12.93
2019-04-16T12:53:13.173Z,12.97
2019-04-16T12:56:05.857Z,13.80
2019-04-16T12:58:42.393Z,15.57
2019-04-16T13:01:19.770Z,14.27
2019-04-16T13:03:56.132Z,14.70
2019-04-16T13:06:54.158Z,13.83
2019-04-16T13:10:02.485Z,13.27
2019-04-16T13:12:45.850Z,14.00
2019-04-16T13:15:32.968Z,12.23
2019-04-16T13:18:24.866Z,12.80
2019-04-16T13:21:03.906Z,11.97
2019-04-16T13:23:37.215Z,12.43
2019-04-16T13:26:15.425Z,12.30
2019-04-16T13:28:45.724Z,12.47
2019-04-16T13:31:15.716Z,11.57
2019-04-16T13:33:47.209Z,10.47
2019-04-16T13:36:18.398Z,9.40
2019-04-16T13:38:53.790Z,9.97
2019-04-16T13:41:27.027Z,9.63
2019-04-16T13:44:00.411Z,9.17
2019-04-16T13:46:30.559Z,8.47
2019-04-16T13:49:09.610Z,8.77
2019-04-16T13:51:39.734Z,7.80
2019-04-16T13:54:37.570Z,8.50
2019-04-16T13:57:11.701Z,8.37
2019-04-16T14:00:04.377Z,8.47
2019-04-16T14:02:52.116Z,8.17
2019-04-16T14:05:24.431Z,8.60
2019-04-16T14:07:54.303Z,8.10
2019-04-16T14:10:24.265Z,7.83
2019-04-16T14:12:54.209Z,8.70
2019-04-16T14:15:32.227Z,8.90
2019-04-16T14:17:59.767Z,7.93
2019-04-16T14:20:28.911Z,7.83
2019-04-16T14:22:58.768Z,7.40
2019-04-16T14:25:28.753Z,8.00
2019-04-16T14:28:01.922Z,8.07
2019-04-16T14:30:39.581Z,7.77
2019-04-16T14:33:08.565Z,7.73
2019-04-16T14:35:40.510Z,7.17
2019-04-16T14:38:11.151Z,7.40
2019-04-16T14:40:42.363Z,7.00
2019-04-16T14:43:14.851Z,6.73
2019-04-16T14:45:58.363Z,7.13
2019-04-16T14:48:19.410Z,7.37
2019-04-16T14:50:49.651Z,7.17
2019-04-16T14:53:36.176Z,7.30
2019-04-16T14:56:30.833Z,5.73
2019-04-16T14:59:05.811Z,6.23
2019-04-16T15:02:00.971Z,6.00
2019-04-16T15:04:40.168Z,6.10
2019-04-16T15:07:28.396Z,6.53
2019-04-16T15:10:13.511Z,6.80
2019-04-16T15:13:02.452Z,5.93
2019-04-16T15:16:05.630Z,6.10
2019-04-16T15:18:32.037Z,6.40
2019-04-16T15:21:19.778Z,6.20
2019-04-16T15:24:08.751Z,6.93
2019-04-16T15:26:53.364Z,6.10
2019-04-16T15:29:44.810Z,5.80
2019-04-16T15:32:25.280Z,6.60
2019-04-16T15:34:55.998Z,7.17
2019-04-16T15:37:39.345Z,6.00
2019-04-16T15:40:15.191Z,6.97
2019-04-16T15:43:11.448Z,5.63
2019-04-16T15:46:25.288Z,5.80
2019-04-16T15:48:51.408Z,6.83
2019-04-16T15:51:30.230Z,6.90
2019-04-16T15:54:15.703Z,7.33
2019-04-16T15:56:52.285Z,6.70
2019-04-16T15:59:44.560Z,7.07
2019-04-16T16:02:33.688Z,6.60
2019-04-16T16:05:13.958Z,7.47
2019-04-16T16:07:57.253Z,7.10
2019-04-16T16:10:35.749Z,6.60
2019-04-16T16:13:05.899Z,5.30
2019-04-16T16:15:40.173Z,5.30
2019-04-16T16:18:08.732Z,5.23
2019-04-16T16:20:38.935Z,4.70
2019-04-16T16:23:10.002Z,4.73
2019-04-16T16:25:41.407Z,4.83
2019-04-16T16:28:11.574Z,5.03
2019-04-16T16:30:41.538Z,5.30
2019-04-16T16:33:11.349Z,4.83
2019-04-16T16:35:56.581Z,5.20
2019-04-16T16:38:14.198Z,5.53
2019-04-16T16:40:49.437Z,5.43
2019-04-16T16:43:17.481Z,4.90
2019-04-16T16:46:00.907Z,5.53
2019-04-16T16:48:30.984Z,5.43
2019-04-16T16:51:00.846Z,4.77
2019-04-16T16:53:48.405Z,4.70
2019-04-16T16:56:26.248Z,4.40
2019-04-16T16:59:01.203Z,3.90
2019-04-16T17:01:54.552Z,3.30
2019-04-16T17:04:30.098Z,2.53
2019-04-16T17:07:00.906Z,2.93
2019-04-16T17:09:37.210Z,2.20
2019-04-16T17:12:07.168Z,1.80
2019-04-16T17:14:38.033Z,1.50
2019-04-16T17:17:14.356Z,1.57
2019-04-16T17:19:41.186Z,1.30
2019-04-16T17:22:14.627Z,1.60
2019-04-16T17:24:43.080Z,1.20
2019-04-16T17:27:14.314Z,1.20
2019-04-16T17:29:46.651Z,1.47
2019-04-16T17:32:16.912Z,1.23
2019-04-16T17:34:46.781Z,1.97
2019-04-16T17:37:17.046Z,1.40
2019-04-16T17:40:00.173Z,2.20
2019-04-16T17:42:37.008Z,1.83
2019-04-16T17:45:25.365Z,2.03
2019-04-16T17:48:10.633Z,2.00
2019-04-16T17:50:58.540Z,1.97
2019-04-16T17:53:50.751Z,2.30
2019-04-16T17:56:58.026Z,2.07
2019-04-16T17:59:33.881Z,2.23
2019-04-16T18:02:25.013Z,2.00
2019-04-16T18:05:12.157Z,1.97
2019-04-16T18:07:59.855Z,2.27
2019-04-16T18:10:40.100Z,2.47
2019-04-16T18:13:15.601Z,2.30
2019-04-16T18:16:19.646Z,2.27
2019-04-16T18:19:03.167Z,2.40
2019-04-16T18:21:46.304Z,2.20
2019-04-16T18:24:34.832Z,2.57
2019-04-16T18:27:11.219Z,2.30
2019-04-16T18:29:52.166Z,2.20
2019-04-16T18:32:40.183Z,2.07
2019-04-16T18:35:25.039Z,2.03
2019-04-16T18:38:04.925Z,2.33
2019-04-16T18:41:06.230Z,1.90
2019-04-16T18:43:54.246Z,2.13
2019-04-16T18:46:46.148Z,2.13
2019-04-16T18:49:18.784Z,2.00
2019-04-16T18:51:48.983Z,1.67
2019-04-16T18:54:18.852Z,1.87
2019-04-16T18:56:49.111Z,2.20
2019-04-16T18:59:18.964Z,2.00
2019-04-16T19:01:51.175Z,1.77
2019-04-16T19:04:21.253Z,1.93
2019-04-16T19:06:51.633Z,1.70
2019-04-16T19:09:21.510Z,1.97
2019-04-16T19:11:51.496Z,1.90
2019-04-16T19:14:21.513Z,1.93
2019-04-16T19:16:51.462Z,1.77
2019-04-16T19:19:22.287Z,1.97
2019-04-16T19:21:53.097Z,1.90
2019-04-16T19:24:23.130Z,2.57
2019-04-16T19:26:52.983Z,2.20
2019-04-16T19:29:22.869Z,2.10
2019-04-16T19:31:56.738Z,2.00
2019-04-16T19:34:24.758Z,1.80
2019-04-16T19:36:56.273Z,1.90
2019-04-16T19:39:26.728Z,1.90
2019-04-16T19:41:58.130Z,1.97
2019-04-16T19:44:33.218Z,2.13
2019-04-16T19:47:00.860Z,2.17
2019-04-16T19:49:30.751Z,2.20
2019-04-16T19:52:00.596Z,2.23
2019-04-16T19:54:31.822Z,2.10
2019-04-16T19:57:01.900Z,2.20
2019-04-16T19:59:31.868Z,2.10
2019-04-16T20:02:02.385Z,2.10
2019-04-16T20:04:32.260Z,2.17
2019-04-16T20:07:02.444Z,2.30
2019-04-16T20:09:32.486Z,2.27
2019-04-16T20:12:02.448Z,2.50
2019-04-16T20:14:35.264Z,2.27
2019-04-16T20:17:03.926Z,3.00
2019-04-16T20:19:36.266Z,2.30
2019-04-16T20:22:06.129Z,2.27
2019-04-16T20:24:35.993Z,2.47
2019-04-16T20:27:07.008Z,2.20
2019-04-16T20:29:36.984Z,2.53
2019-04-16T20:32:07.946Z,3.17
2019-04-16T20:34:37.910Z,2.83
2019-04-16T20:37:07.785Z,2.43
2019-04-16T20:39:40.772Z,2.23
2019-04-16T20:42:09.702Z,2.27
2019-04-16T20:44:40.551Z,2.43
2019-04-16T20:47:10.338Z,2.67
2019-04-16T20:49:40.271Z,4.27
2019-04-16T20:52:10.198Z,3.23
2019-04-16T20:54:44.295Z,2.87
2019-04-16T20:57:15.465Z,2.67
2019-04-16T20:59:45.318Z,2.50
2019-04-16T21:02:15.710Z,2.73
2019-04-16T21:04:45.758Z,2.70
2019-04-16T21:07:15.699Z,2.87
2019-04-16T21:09:45.586Z,2.47
2019-04-16T21:12:15.780Z,2.60
2019-04-16T21:14:45.763Z,2.87
2019-04-16T21:17:16.290Z,2.80
2019-04-16T21:19:47.896Z,2.77
2019-04-16T21:22:18.823Z,3.20
2019-04-16T21:24:49.033Z,3.27
2019-04-16T21:27:18.988Z,3.00
2019-04-16T21:29:48.932Z,3.13
2019-04-16T21:32:37.070Z,3.90
2019-04-16T21:35:13.560Z,4.20
2019-04-16T21:38:05.342Z,2.97
2019-04-16T21:40:35.156Z,3.40
2019-04-16T21:43:07.724Z,3.13
2019-04-16T21:45:36.764Z,3.23
2019-04-16T21:48:06.691Z,2.97
2019-04-16T21:50:36.547Z,3.30
2019-04-16T21:53:06.402Z,3.07
2019-04-16T21:55:36.705Z,3.70
2019-04-16T21:58:07.098Z,3.10
2019-04-16T22:01:05.205Z,3.40
2019-04-16T22:03:41.783Z,4.20
2019-04-16T22:06:08.429Z,3.30
2019-04-16T22:08:38.414Z,4.23
2019-04-16T22:11:11.772Z,4.00
2019-04-16T22:13:39.783Z,3.70
2019-04-16T22:16:09.730Z,3.73
2019-04-16T22:18:41.536Z,3.77
2019-04-16T22:21:11.351Z,4.10
2019-04-16T22:23:41.811Z,3.87
2019-04-16T22:26:11.716Z,3.63
2019-04-16T22:28:44.390Z,3.57
2019-04-16T22:31:13.546Z,3.93
2019-04-16T22:33:43.533Z,3.20
2019-04-16T22:36:13.452Z,3.33
2019-04-16T22:38:46.534Z,3.80
2019-04-16T22:41:35.045Z,3.47
2019-04-16T22:44:22.655Z,3.10
2019-04-16T22:46:56.361Z,2.87
2019-04-16T22:49:26.356Z,2.93
2019-04-16T22:51:57.656Z,3.50
2019-04-16T22:54:27.575Z,3.20
2019-04-16T22:57:16.285Z,2.90
2019-04-16T22:59:46.446Z,2.70
2019-04-16T23:02:21.618Z,2.83
2019-04-16T23:04:51.468Z,2.33
2019-04-16T23:07:21.432Z,2.67
2019-04-16T23:09:51.448Z,2.50
2019-04-16T23:12:21.449Z,2.53
2019-04-16T23:14:51.767Z,2.73
2019-04-16T23:17:24.875Z,3.00
2019-04-16T23:19:55.531Z,2.77
2019-04-16T23:22:26.431Z,2.80
2019-04-16T23:24:56.510Z,2.70
2019-04-16T23:27:26.832Z,2.60
2019-04-16T23:29:56.723Z,2.87
2019-04-16T23:32:28.618Z,2.60
2019-04-16T23:34:58.564Z,3.10
2019-04-16T23:37:28.801Z,2.70
2019-04-16T23:39:59.111Z,2.77
2019-04-16T23:42:29.016Z,2.90
2019-04-16T23:45:36.379Z,2.40
2019-04-16T23:48:17.712Z,2.67
2019-04-16T23:50:55.786Z,2.90
2019-04-16T23:53:43.428Z,2.90
2019-04-16T23:56:31.256Z,2.83
2019-04-16T23:59:14.261Z,2.93
